Time;durP1;ratioP1;P1;durP2;ratioP2;P2;SDS_P1;SDS_P2;PMS_P1;PMS_P2;Temp;Humidity;BMP_temperature;BMP_pressure;BME280_temperature;BME280_humidity;BME280_pressure;Samples;Min_cycle;Max_cycle;Signal;HPM_P1;HPM_P2
2022/01/07 00:02:23;;;;;;;32.40;14.70;;;10.50;99.90;;;;;;6278706;22;20065;-61
2022/01/07 00:04:50;;;;;;;31.88;16.40;;;10.50;99.90;;;;;;6278178;22;20004;-62
2022/01/07 00:07:19;;;;;;;40.50;17.42;;;10.40;99.90;;;;;;6278694;22;20000;-61
2022/01/07 00:09:45;;;;;;;32.90;15.05;;;10.40;99.90;;;;;;6278548;22;20004;-61
2022/01/07 00:12:12;;;;;;;31.48;15.52;;;10.50;99.90;;;;;;6251076;22;20329;-61
2022/01/07 00:14:39;;;;;;;33.40;15.98;;;10.50;99.90;;;;;;6278035;22;20004;-61
2022/01/07 00:17:05;;;;;;;34.38;16.00;;;10.50;99.90;;;;;;6278217;22;20000;-61
2022/01/07 00:19:32;;;;;;;37.97;15.40;;;10.50;99.90;;;;;;6278178;22;20003;-61
2022/01/07 00:21:58;;;;;;;43.22;17.30;;;10.50;99.90;;;;;;6278502;22;20008;-61
2022/01/07 00:24:25;;;;;;;43.30;17.90;;;10.50;99.90;;;;;;6278138;22;20390;-61
2022/01/07 00:26:52;;;;;;;46.75;17.52;;;10.50;99.90;;;;;;6277668;22;20004;-61
2022/01/07 00:29:18;;;;;;;45.80;18.58;;;10.50;99.90;;;;;;6278269;22;20042;-61
2022/01/07 00:31:48;;;;;;;41.10;19.20;;;10.50;99.90;;;;;;6278024;22;20022;-61
2022/01/07 00:34:14;;;;;;;45.47;18.83;;;10.50;99.90;;;;;;6278754;22;20022;-60
2022/01/07 00:36:41;;;;;;;46.60;18.13;;;10.50;99.90;;;;;;6278219;22;20004;-61
2022/01/07 00:39:07;;;;;;;45.50;19.52;;;10.50;99.90;;;;;;6277890;22;20007;-60
2022/01/07 00:41:37;;;;;;;51.13;20.10;;;10.50;99.90;;;;;;6278375;22;20054;-60
2022/01/07 00:44:04;;;;;;;61.63;20.40;;;10.50;99.90;;;;;;6277880;22;20054;-60
2022/01/07 00:46:31;;;;;;;58.17;20.88;;;10.50;99.90;;;;;;6277668;22;20022;-60
2022/01/07 00:48:57;;;;;;;54.67;20.80;;;10.40;99.90;;;;;;6251013;22;20010;-60
2022/01/07 00:51:24;;;;;;;55.47;19.92;;;10.50;99.90;;;;;;6277572;22;20007;-60
2022/01/07 00:53:50;;;;;;;51.40;18.83;;;10.40;99.90;;;;;;6251198;22;20484;-60
2022/01/07 00:56:17;;;;;;;54.08;20.27;;;10.40;99.90;;;;;;6277606;22;20003;-61
2022/01/07 00:58:43;;;;;;;69.25;24.70;;;10.50;99.90;;;;;;6278207;22;20083;-60
2022/01/07 01:01:10;;;;;;;62.95;23.05;;;10.50;99.90;;;;;;6277725;22;20000;-61
2022/01/07 01:03:37;;;;;;;109.72;26.23;;;10.50;99.90;;;;;;6277612;22;20011;-61
2022/01/07 01:06:04;;;;;;;101.85;26.35;;;10.40;99.90;;;;;;6277736;22;20075;-61
2022/01/07 01:08:31;;;;;;;62.65;22.38;;;10.40;99.90;;;;;;6277700;22;20008;-61
2022/01/07 01:11:00;;;;;;;92.65;25.02;;;10.40;99.90;;;;;;6277737;22;20075;-61
2022/01/07 01:13:27;;;;;;;48.80;20.85;;;10.40;99.90;;;;;;6277468;22;20023;-60
2022/01/07 01:15:54;;;;;;;50.70;19.80;;;10.30;99.90;;;;;;6277488;22;20010;-61
2022/01/07 01:18:20;;;;;;;50.40;20.40;;;10.40;99.90;;;;;;6278109;22;20066;-60
2022/01/07 01:20:47;;;;;;;57.55;22.20;;;10.50;99.90;;;;;;6277483;22;20087;-61
2022/01/07 01:23:13;;;;;;;49.45;21.00;;;10.50;99.90;;;;;;6277551;22;20011;-61
2022/01/07 01:25:40;;;;;;;100.05;23.77;;;10.60;99.90;;;;;;6277484;22;20014;-61
2022/01/07 01:28:07;;;;;;;92.22;24.77;;;10.60;99.90;;;;;;6277908;22;20073;-61
2022/01/07 01:30:35;;;;;;;68.70;22.45;;;10.60;99.90;;;;;;6277916;22;20008;-60
2022/01/07 01:33:03;;;;;;;53.42;19.55;;;10.50;99.90;;;;;;6277353;22;20023;-60
2022/01/07 01:35:30;;;;;;;60.75;21.00;;;10.40;99.90;;;;;;6278339;22;20087;-61
2022/01/07 01:37:57;;;;;;;50.40;20.50;;;10.30;99.90;;;;;;6277443;22;20034;-61
2022/01/07 01:40:23;;;;;;;62.17;22.42;;;10.30;99.90;;;;;;6277370;22;19999;-60
2022/01/07 01:42:52;;;;;;;56.42;21.00;;;10.30;99.90;;;;;;6277356;22;20003;-60
2022/01/07 01:45:22;;;;;;;51.65;21.75;;;10.30;99.90;;;;;;6277147;22;20068;-60
2022/01/07 01:47:49;;;;;;;54.67;20.08;;;10.30;99.90;;;;;;6277404;22;20130;-61
2022/01/07 01:50:16;;;;;;;47.60;21.13;;;10.40;99.90;;;;;;6277427;22;20007;-61
2022/01/07 01:52:56;;;;;;;59.97;21.38;;;10.50;99.90;;;;;;6277011;22;20016;-60
2022/01/07 01:55:27;;;;;;;52.60;19.73;;;10.50;99.90;;;;;;6277307;22;20337;-60
2022/01/07 01:57:55;;;;;;;52.67;20.13;;;10.50;99.90;;;;;;6277289;22;20061;-60
2022/01/07 02:00:25;;;;;;;59.55;18.75;;;10.50;99.90;;;;;;6250263;22;20004;-61
2022/01/07 02:02:52;;;;;;;43.05;18.75;;;10.50;99.90;;;;;;6277389;22;20054;-60
2022/01/07 02:05:19;;;;;;;40.55;13.93;;;10.50;99.90;;;;;;6277877;22;20410;-61
2022/01/07 02:07:46;;;;;;;26.77;11.52;;;10.50;99.90;;;;;;6277077;22;20492;-61
2022/01/07 02:10:16;;;;;;;49.78;9.95;;;10.60;99.90;;;;;;6250056;22;20004;-61
2022/01/07 02:12:44;;;;;;;26.95;9.48;;;10.60;99.90;;;;;;6276821;22;20062;-60
2022/01/07 02:15:14;;;;;;;31.52;8.88;;;10.60;99.90;;;;;;6277494;22;20324;-61
2022/01/07 02:17:43;;;;;;;36.42;8.25;;;10.60;99.90;;;;;;6276838;22;20069;-61
2022/01/07 02:20:13;;;;;;;19.92;7.13;;;10.70;99.90;;;;;;6277092;22;20034;-60
2022/01/07 02:22:40;;;;;;;29.75;8.68;;;10.70;99.90;;;;;;6276964;22;20012;-61
2022/01/07 02:25:07;;;;;;;22.45;6.78;;;10.70;99.90;;;;;;6250300;22;19996;-61
2022/01/07 02:27:40;;;;;;;56.80;9.70;;;10.70;99.90;;;;;;6276979;22;20004;-60
2022/01/07 02:30:12;;;;;;;31.13;8.57;;;10.70;99.90;;;;;;6277028;22;20015;-60
2022/01/07 02:32:39;;;;;;;36.28;8.57;;;10.70;99.90;;;;;;6276921;22;20016;-60
2022/01/07 02:35:08;;;;;;;31.08;12.25;;;10.70;99.90;;;;;;6277383;22;20061;-60
2022/01/07 02:37:36;;;;;;;17.25;7.45;;;10.70;99.90;;;;;;6276938;22;20065;-61
2022/01/07 02:40:06;;;;;;;25.52;9.70;;;10.60;99.90;;;;;;6277275;22;20004;-60
2022/01/07 02:42:33;;;;;;;35.20;8.45;;;10.70;99.90;;;;;;6277048;22;20044;-61
2022/01/07 02:45:08;;;;;;;18.15;7.03;;;10.70;99.90;;;;;;6276548;22;20134;-61
2022/01/07 02:47:49;;;;;;;32.15;8.05;;;10.70;99.90;;;;;;6276853;22;20031;-61
2022/01/07 02:50:25;;;;;;;26.65;8.73;;;10.70;99.90;;;;;;6249973;22;20027;-61
2022/01/07 02:52:55;;;;;;;23.17;7.32;;;10.80;99.90;;;;;;6277182;22;20019;-60
2022/01/07 02:55:23;;;;;;;28.98;9.05;;;10.80;99.90;;;;;;6276897;22;20007;-60
2022/01/07 02:57:50;;;;;;;56.90;11.18;;;10.80;99.90;;;;;;6279053;22;20004;-61
2022/01/07 03:00:18;;;;;;;30.80;7.32;;;10.80;99.90;;;;;;6278990;22;20075;-61
2022/01/07 03:02:46;;;;;;;30.23;8.98;;;10.90;99.90;;;;;;6278915;22;19999;-61
2022/01/07 03:05:13;;;;;;;41.40;9.85;;;10.90;99.90;;;;;;6278978;22;20000;-61
2022/01/07 03:07:42;;;;;;;27.02;9.07;;;10.90;99.90;;;;;;6279202;22;20035;-61
2022/01/07 03:10:10;;;;;;;20.55;7.72;;;10.90;99.90;;;;;;6278809;22;20004;-60
2022/01/07 03:12:38;;;;;;;33.58;9.77;;;10.90;99.90;;;;;;6278386;22;20020;-61
2022/01/07 03:15:06;;;;;;;25.30;8.65;;;10.90;99.90;;;;;;6278894;22;20000;-61
2022/01/07 03:17:32;;;;;;;27.17;8.55;;;10.90;99.90;;;;;;6278840;22;19999;-61
2022/01/07 03:20:02;;;;;;;18.15;7.35;;;10.90;99.90;;;;;;6279716;22;20004;-60
2022/01/07 03:22:29;;;;;;;31.52;10.07;;;10.80;99.90;;;;;;6278610;22;20007;-60
2022/01/07 03:24:55;;;;;;;22.33;8.85;;;10.90;99.90;;;;;;6278631;22;20015;-61
2022/01/07 03:27:22;;;;;;;26.58;9.40;;;10.90;99.90;;;;;;6278504;22;20057;-61
2022/01/07 03:29:48;;;;;;;31.23;9.30;;;10.90;99.90;;;;;;6278563;22;20087;-61
2022/01/07 03:32:15;;;;;;;32.80;9.05;;;10.90;99.90;;;;;;6278479;22;20023;-59
2022/01/07 03:34:41;;;;;;;31.98;10.05;;;10.90;99.90;;;;;;6278556;22;20000;-59
2022/01/07 03:37:08;;;;;;;34.15;8.93;;;10.90;99.90;;;;;;6278540;22;20011;-59
2022/01/07 03:39:35;;;;;;;38.47;9.90;;;11.00;99.90;;;;;;6278427;22;20492;-59
2022/01/07 03:42:03;;;;;;;29.30;8.75;;;11.00;99.90;;;;;;6278601;22;20461;-59
2022/01/07 03:44:29;;;;;;;20.40;8.77;;;10.90;99.90;;;;;;6278191;22;20430;-60
2022/01/07 03:46:56;;;;;;;36.80;12.40;;;10.90;99.90;;;;;;6278867;22;20012;-59
2022/01/07 03:49:22;;;;;;;34.15;10.55;;;10.90;99.90;;;;;;6278382;22;20003;-59
2022/01/07 03:51:49;;;;;;;37.25;12.10;;;10.90;99.90;;;;;;6278302;22;20054;-60
2022/01/07 03:54:16;;;;;;;27.52;11.13;;;10.90;99.90;;;;;;6278490;22;19996;-59
2022/01/07 03:56:42;;;;;;;32.10;12.15;;;11.00;99.90;;;;;;6251294;22;20014;-59
2022/01/07 03:59:09;;;;;;;33.65;12.25;;;10.90;99.90;;;;;;6278286;22;20490;-59
2022/01/07 04:01:35;;;;;;;35.33;12.40;;;10.90;99.90;;;;;;6278249;22;20010;-59
2022/01/07 04:04:03;;;;;;;35.75;11.32;;;10.90;99.90;;;;;;6278377;22;20315;-59
2022/01/07 04:06:30;;;;;;;30.02;10.05;;;10.90;99.90;;;;;;6278246;22;20023;-59
2022/01/07 04:09:00;;;;;;;30.45;10.30;;;10.90;99.90;;;;;;6277549;22;20052;-59
2022/01/07 04:11:26;;;;;;;26.85;11.43;;;10.90;99.90;;;;;;6250984;22;20088;-59
2022/01/07 04:13:53;;;;;;;40.10;11.45;;;10.90;99.90;;;;;;6278124;22;20075;-59
2022/01/07 04:16:19;;;;;;;32.30;12.18;;;11.00;99.90;;;;;;6278158;22;20011;-59
2022/01/07 04:18:47;;;;;;;39.17;12.68;;;11.00;99.90;;;;;;6278514;22;20007;-59
2022/01/07 04:21:13;;;;;;;34.88;12.75;;;10.90;99.90;;;;;;6279126;22;20004;-59
2022/01/07 04:23:40;;;;;;;29.23;12.20;;;11.00;99.90;;;;;;6277994;22;20004;-60
2022/01/07 04:26:06;;;;;;;30.98;11.73;;;11.00;99.90;;;;;;6278381;22;20034;-60
2022/01/07 04:28:34;;;;;;;32.35;12.57;;;11.00;99.90;;;;;;6278521;22;20384;-59
2022/01/07 04:31:01;;;;;;;53.10;14.60;;;11.00;99.90;;;;;;6278459;22;20008;-59
2022/01/07 04:33:31;;;;;;;35.42;12.43;;;11.10;99.90;;;;;;6278184;22;20016;-60
2022/01/07 04:35:59;;;;;;;34.03;11.88;;;11.10;99.90;;;;;;6277941;22;20004;-60
2022/01/07 04:38:25;;;;;;;30.00;11.55;;;11.20;99.90;;;;;;6278040;22;20007;-59
2022/01/07 04:40:52;;;;;;;48.47;12.43;;;11.20;99.90;;;;;;6278317;22;20003;-60
2022/01/07 04:43:21;;;;;;;39.20;12.40;;;11.20;99.90;;;;;;6250880;22;20004;-60
2022/01/07 04:45:48;;;;;;;37.38;12.52;;;11.20;99.90;;;;;;6277479;22;20019;-60
2022/01/07 04:48:15;;;;;;;38.70;12.13;;;11.20;99.90;;;;;;6278069;22;20007;-60
2022/01/07 04:50:42;;;;;;;41.42;13.43;;;11.20;99.90;;;;;;6277710;22;20087;-60
2022/01/07 04:53:08;;;;;;;38.30;12.27;;;11.10;99.90;;;;;;6278001;22;20011;-60
2022/01/07 04:55:37;;;;;;;44.75;13.00;;;11.20;99.90;;;;;;6277717;22;20035;-60
2022/01/07 04:58:11;;;;;;;36.35;11.30;;;11.20;99.90;;;;;;6277846;22;20365;-60
2022/01/07 05:00:40;;;;;;;45.78;12.80;;;11.30;99.90;;;;;;6278187;22;20122;-60
2022/01/07 05:03:07;;;;;;;37.42;11.73;;;11.30;99.90;;;;;;6277484;22;20365;-60
2022/01/07 05:05:34;;;;;;;37.30;11.07;;;11.30;99.90;;;;;;6277710;22;20004;-60
2022/01/07 05:08:02;;;;;;;47.92;11.70;;;11.30;99.90;;;;;;6277670;22;20006;-60
2022/01/07 05:10:29;;;;;;;44.35;11.95;;;11.40;99.90;;;;;;6278059;22;20019;-59
2022/01/07 05:12:56;;;;;;;34.97;11.48;;;11.30;99.90;;;;;;6277885;22;20019;-59
2022/01/07 05:15:23;;;;;;;53.47;14.02;;;11.40;99.90;;;;;;6277522;22;20007;-60
2022/01/07 05:17:51;;;;;;;48.10;11.95;;;11.30;99.90;;;;;;6277537;22;20430;-60
2022/01/07 05:20:18;;;;;;;47.80;13.20;;;11.30;99.90;;;;;;6277760;22;19995;-60
2022/01/07 05:22:45;;;;;;;44.35;12.43;;;11.30;99.90;;;;;;6277481;22;20017;-60
2022/01/07 05:25:13;;;;;;;36.58;13.05;;;11.40;99.90;;;;;;6277519;22;19996;-59
2022/01/07 05:27:40;;;;;;;51.58;13.45;;;11.30;99.90;;;;;;6277694;22;20404;-65
2022/01/07 05:30:09;;;;;;;50.75;15.07;;;11.40;99.90;;;;;;6277467;22;20007;-65
2022/01/07 05:32:36;;;;;;;45.03;11.52;;;11.40;99.90;;;;;;6277388;22;20019;-65
2022/01/07 05:35:03;;;;;;;62.22;13.35;;;11.40;99.90;;;;;;6277258;22;20008;-65
2022/01/07 05:37:30;;;;;;;43.15;12.05;;;11.40;99.90;;;;;;6277766;22;20035;-65
2022/01/07 05:39:57;;;;;;;44.65;12.52;;;11.40;99.90;;;;;;6277126;22;20034;-65
2022/01/07 05:42:25;;;;;;;58.90;14.35;;;11.30;99.90;;;;;;6277702;22;20071;-65
2022/01/07 05:44:52;;;;;;;44.05;12.77;;;11.30;99.90;;;;;;6276979;22;20430;-65
2022/01/07 05:47:19;;;;;;;45.95;14.00;;;11.40;99.90;;;;;;6250155;22;20012;-65
2022/01/07 05:49:45;;;;;;;40.65;12.50;;;11.50;99.90;;;;;;6277243;22;20007;-64
2022/01/07 05:52:12;;;;;;;58.65;12.25;;;11.30;99.90;;;;;;6277002;22;20014;-65
2022/01/07 05:54:42;;;;;;;47.88;13.95;;;11.40;99.90;;;;;;6277276;22;19999;-65
2022/01/07 05:57:08;;;;;;;35.85;13.05;;;11.40;99.90;;;;;;6276923;22;20311;-65
2022/01/07 05:59:35;;;;;;;46.90;14.35;;;11.50;99.90;;;;;;6277264;22;20090;-65
2022/01/07 06:02:02;;;;;;;44.28;12.02;;;11.40;99.90;;;;;;6277128;22;20030;-65
2022/01/07 06:04:28;;;;;;;40.38;12.40;;;11.40;99.90;;;;;;6277420;22;20007;-65
2022/01/07 06:06:55;;;;;;;43.42;12.75;;;11.40;99.90;;;;;;6277246;22;20038;-65
2022/01/07 06:09:21;;;;;;;37.20;13.15;;;11.50;99.90;;;;;;6277405;22;20035;-65
2022/01/07 06:11:48;;;;;;;44.70;11.38;;;11.50;99.90;;;;;;6249978;22;20088;-65
2022/01/07 06:14:15;;;;;;;43.03;11.98;;;11.50;99.90;;;;;;6276963;22;20110;-65
2022/01/07 06:16:41;;;;;;;36.85;11.00;;;11.40;99.90;;;;;;6249948;22;20349;-65
2022/01/07 06:19:08;;;;;;;43.67;12.18;;;11.40;99.90;;;;;;6277028;22;20000;-65
2022/01/07 06:21:35;;;;;;;33.50;11.68;;;11.40;99.90;;;;;;6277072;22;20152;-65
2022/01/07 06:24:02;;;;;;;45.88;11.57;;;11.40;99.90;;;;;;6276797;22;20489;-65
2022/01/07 06:26:28;;;;;;;42.97;12.35;;;11.40;99.90;;;;;;6277054;22;20011;-65
2022/01/07 06:28:55;;;;;;;34.80;10.82;;;11.40;99.90;;;;;;6277040;22;20003;-65
2022/01/07 06:31:21;;;;;;;45.47;12.10;;;11.40;99.90;;;;;;6249469;22;20007;-65
2022/01/07 06:33:51;;;;;;;26.63;10.68;;;11.40;99.90;;;;;;6277238;22;20123;-65
2022/01/07 06:36:17;;;;;;;32.30;10.95;;;11.40;99.90;;;;;;6276818;22;20003;-66
2022/01/07 06:38:44;;;;;;;40.22;10.07;;;11.40;99.90;;;;;;6277269;22;20007;-64
2022/01/07 06:41:10;;;;;;;33.92;9.25;;;11.30;99.90;;;;;;6277167;22;20339;-66
2022/01/07 06:43:40;;;;;;;32.22;10.32;;;11.40;99.90;;;;;;6276767;22;20495;-65
2022/01/07 06:46:06;;;;;;;37.85;11.18;;;11.30;99.90;;;;;;6276707;22;20434;-65
2022/01/07 06:48:33;;;;;;;36.72;11.05;;;11.30;99.90;;;;;;6276714;22;20008;-64
2022/01/07 06:50:59;;;;;;;40.00;10.68;;;11.40;99.90;;;;;;6249706;22;20087;-65
2022/01/07 06:53:29;;;;;;;30.60;10.38;;;11.30;99.90;;;;;;6276560;22;20016;-65
2022/01/07 06:55:57;;;;;;;27.88;9.43;;;11.40;99.90;;;;;;6276868;22;20078;-65
2022/01/07 06:58:24;;;;;;;39.22;10.52;;;11.40;99.90;;;;;;6276737;22;20004;-66
2022/01/07 07:00:51;;;;;;;26.60;9.93;;;11.40;99.90;;;;;;6276608;22;20004;-66
2022/01/07 07:03:18;;;;;;;26.42;7.63;;;11.40;99.90;;;;;;6276705;22;20000;-65
2022/01/07 07:05:47;;;;;;;28.20;7.03;;;11.50;99.90;;;;;;6276762;22;20459;-65
2022/01/07 07:08:14;;;;;;;23.08;6.50;;;11.50;99.90;;;;;;6276634;22;20503;-65
2022/01/07 07:10:41;;;;;;;16.27;6.43;;;11.50;99.90;;;;;;6249943;22;20039;-65
2022/01/07 07:13:08;;;;;;;16.98;5.18;;;11.50;99.90;;;;;;6276473;22;20338;-65
2022/01/07 07:15:35;;;;;;;27.15;6.18;;;11.60;99.90;;;;;;6276799;22;19996;-64
2022/01/07 07:18:01;;;;;;;17.27;6.07;;;11.50;99.90;;;;;;6276626;22;20075;-65
2022/01/07 07:20:28;;;;;;;19.77;5.38;;;11.50;99.90;;;;;;6276504;22;20433;-65
2022/01/07 07:22:57;;;;;;;11.43;5.80;;;11.50;99.90;;;;;;6276672;22;20004;-65
2022/01/07 07:25:25;;;;;;;17.52;5.82;;;11.50;99.90;;;;;;6276698;22;20031;-65
2022/01/07 07:27:52;;;;;;;13.70;5.00;;;11.50;99.90;;;;;;6249734;22;20011;-65
2022/01/07 07:30:18;;;;;;;9.73;4.32;;;11.60;99.90;;;;;;6276721;22;20003;-65
2022/01/07 07:32:45;;;;;;;15.65;3.78;;;11.60;99.90;;;;;;6276934;22;20329;-65
2022/01/07 07:37:48;;;;;;;14.15;4.43;;;11.70;99.90;;;;;;6249590;22;20018;-65
2022/01/07 07:40:16;;;;;;;22.35;5.15;;;11.70;99.90;;;;;;6277029;22;20487;-65
2022/01/07 07:42:43;;;;;;;15.20;5.50;;;11.70;99.90;;;;;;6277710;22;20027;-65
2022/01/07 07:45:19;;;;;;;19.70;6.75;;;11.70;99.90;;;;;;6278245;22;20016;-65
2022/01/07 07:47:45;;;;;;;14.35;6.07;;;11.70;99.90;;;;;;6278354;22;20019;-65
2022/01/07 07:50:12;;;;;;;18.10;7.10;;;11.70;99.90;;;;;;6278350;22;20004;-66
2022/01/07 07:52:39;;;;;;;14.27;5.35;;;11.80;99.90;;;;;;6278591;22;20038;-66
2022/01/07 07:55:06;;;;;;;16.35;5.22;;;11.80;99.90;;;;;;6278284;22;20054;-65
2022/01/07 07:57:33;;;;;;;21.55;5.57;;;11.90;99.90;;;;;;6278396;22;20026;-65
2022/01/07 07:59:59;;;;;;;14.85;4.93;;;11.90;99.90;;;;;;6278211;22;20014;-65
2022/01/07 08:02:30;;;;;;;16.77;5.63;;;12.00;99.90;;;;;;6278373;22;20003;-65
2022/01/07 08:04:57;;;;;;;14.10;4.82;;;12.00;99.90;;;;;;6278345;22;20011;-65
2022/01/07 08:07:24;;;;;;;14.98;4.07;;;12.10;99.90;;;;;;6278155;22;20425;-65
2022/01/07 08:09:52;;;;;;;8.77;3.42;;;12.10;99.90;;;;;;6278686;22;20000;-65
2022/01/07 08:12:25;;;;;;;12.80;3.97;;;12.10;99.90;;;;;;6278155;22;20019;-65
2022/01/07 08:17:37;;;;;;;12.70;4.03;;;12.10;99.90;;;;;;6278121;22;20437;-65
2022/01/07 08:20:05;;;;;;;16.13;4.50;;;12.20;99.90;;;;;;6251125;22;20004;-65
2022/01/07 08:22:32;;;;;;;17.55;4.22;;;12.30;99.90;;;;;;6278029;22;20019;-65
2022/01/07 08:24:59;;;;;;;12.27;3.72;;;12.30;99.90;;;;;;6277775;22;20000;-65
2022/01/07 08:27:25;;;;;;;10.75;4.25;;;12.30;99.90;;;;;;6278399;22;20437;-65
2022/01/07 08:29:52;;;;;;;13.35;5.47;;;12.30;99.90;;;;;;6277871;22;20066;-65
2022/01/07 08:35:05;;;;;;;13.93;3.92;;;12.40;99.90;;;;;;6277379;22;20028;-65
2022/01/07 08:37:32;;;;;;;15.63;5.63;;;12.40;99.90;;;;;;6278017;22;20000;-65
2022/01/07 08:40:02;;;;;;;13.88;4.75;;;12.40;99.90;;;;;;6278295;22;20004;-65
2022/01/07 08:42:29;;;;;;;16.13;5.72;;;12.50;99.90;;;;;;6277901;22;20019;-65
2022/01/07 08:44:55;;;;;;;12.70;5.70;;;12.50;99.90;;;;;;6277855;22;20065;-65
2022/01/07 08:47:24;;;;;;;13.25;4.50;;;12.60;99.90;;;;;;6277771;22;20034;-65
2022/01/07 08:49:52;;;;;;;13.00;5.05;;;12.50;99.90;;;;;;6277847;22;20057;-65
2022/01/07 08:52:20;;;;;;;9.40;4.53;;;12.60;99.90;;;;;;6277729;22;20083;-65
2022/01/07 08:54:50;;;;;;;13.05;4.88;;;12.70;99.90;;;;;;6277394;22;20012;-65
2022/01/07 08:57:19;;;;;;;11.18;4.43;;;12.80;99.90;;;;;;6278180;22;20069;-65
2022/01/07 08:59:47;;;;;;;10.38;4.60;;;12.90;99.90;;;;;;6277672;22;20038;-65
2022/01/07 09:02:14;;;;;;;17.58;4.68;;;12.90;99.90;;;;;;6277680;22;20082;-65
2022/01/07 09:04:43;;;;;;;18.58;4.65;;;13.00;99.90;;;;;;6277648;22;20027;-65
2022/01/07 09:07:13;;;;;;;18.58;5.22;;;13.10;99.90;;;;;;6277736;22;20000;-65
2022/01/07 09:09:40;;;;;;;17.77;5.03;;;13.20;99.90;;;;;;6277457;22;20019;-66
2022/01/07 09:12:07;;;;;;;12.50;3.67;;;13.30;99.90;;;;;;6250470;22;20015;-65
2022/01/07 09:14:33;;;;;;;13.20;4.43;;;13.20;99.90;;;;;;6278025;22;19996;-65
2022/01/07 09:17:00;;;;;;;11.93;4.40;;;13.40;99.90;;;;;;6277922;22;20011;-65
2022/01/07 09:19:28;;;;;;;12.13;4.00;;;13.50;99.90;;;;;;6250337;22;20008;-65
2022/01/07 09:21:58;;;;;;;8.20;2.75;;;13.50;99.90;;;;;;6277546;22;20045;-65
2022/01/07 09:24:26;;;;;;;7.20;2.17;;;13.60;99.90;;;;;;6277431;22;20012;-65
2022/01/07 09:26:54;;;;;;;10.88;2.70;;;13.70;99.90;;;;;;6277954;22;20004;-65
2022/01/07 09:29:23;;;;;;;6.65;2.35;;;13.80;99.90;;;;;;6277486;22;20000;-65
2022/01/07 09:31:53;;;;;;;9.63;2.25;;;13.90;99.90;;;;;;6277268;22;20083;-65
2022/01/07 09:34:20;;;;;;;5.90;2.28;;;13.80;99.90;;;;;;6279254;22;20008;-82
2022/01/07 09:36:46;;;;;;;3.05;1.70;;;13.80;99.90;;;;;;6224827;22;20015;-90
2022/01/07 09:39:13;;;;;;;4.85;1.88;;;13.80;99.90;;;;;;6232457;22;20012;-89
2022/01/07 09:41:40;;;;;;;4.60;1.70;;;13.80;99.90;;;;;;6238353;22;20004;-89
2022/01/07 09:44:11;;;;;;;9.65;1.05;;;13.90;99.90;;;;;;6236502;22;20010;-88
2022/01/07 09:46:39;;;;;;;7.18;1.63;;;13.80;99.90;;;;;;6226376;23;20012;-88
2022/01/07 09:49:06;;;;;;;21.88;2.00;;;13.70;99.90;;;;;;6221080;23;20004;-88
2022/01/07 09:51:36;;;;;;;4.75;1.10;;;13.70;99.90;;;;;;6220903;23;20426;-88
2022/01/07 09:54:07;;;;;;;12.30;1.40;;;13.70;99.90;;;;;;6221609;23;20472;-90
2022/01/07 09:56:33;;;;;;;9.35;1.73;;;13.90;99.90;;;;;;6221984;23;20036;-88
2022/01/07 09:59:04;;;;;;;7.03;2.08;;;14.00;99.90;;;;;;6220720;23;20095;-88
2022/01/07 10:01:51;;;;;;;3.55;1.00;;;14.00;99.90;;;;;;6220892;23;20457;-87
2022/01/07 10:04:31;;;;;;;5.10;1.17;;;14.00;99.90;;;;;;6220649;23;20016;-75
2022/01/07 10:07:20;;;;;;;5.88;0.63;;;13.90;99.90;;;;;;6247800;22;20444;-78
2022/01/07 10:10:05;;;;;;;4.88;0.93;;;13.90;99.90;;;;;;6219733;23;20035;-78
2022/01/07 10:12:48;;;;;;;2.13;1.08;;;14.00;99.90;;;;;;6246489;22;20334;-84
2022/01/07 10:15:19;;;;;;;5.68;0.80;;;13.80;99.90;;;;;;6219691;23;20336;-78
2022/01/07 10:18:08;;;;;;;1.75;0.52;;;13.70;99.90;;;;;;6244963;23;20012;-78
2022/01/07 10:20:40;;;;;;;2.70;1.23;;;13.70;99.90;;;;;;6246448;22;20007;-79
2022/01/07 10:23:17;;;;;;;6.05;1.00;;;13.70;99.90;;;;;;6246609;22;20334;-78
2022/01/07 10:25:46;;;;;;;15.35;1.27;;;13.70;99.90;;;;;;6245285;23;20369;-79
2022/01/07 10:28:17;;;;;;;5.05;0.80;;;13.80;99.90;;;;;;6246319;22;20035;-79
2022/01/07 10:30:49;;;;;;;5.30;1.05;;;13.80;99.90;;;;;;6219423;23;20086;-79
2022/01/07 10:33:29;;;;;;;3.13;0.80;;;13.70;99.90;;;;;;6245146;23;20012;-79
2022/01/07 10:36:13;;;;;;;4.95;0.60;;;13.80;99.90;;;;;;6244857;23;20015;-79
2022/01/07 10:38:51;;;;;;;1.15;0.60;;;13.70;99.90;;;;;;6244816;23;20013;-79
2022/01/07 10:41:18;;;;;;;9.02;0.88;;;13.70;99.90;;;;;;6246645;23;20004;-79
2022/01/07 10:43:45;;;;;;;4.00;0.93;;;13.70;99.90;;;;;;6245003;23;20019;-85
2022/01/07 10:46:31;;;;;;;9.23;1.33;;;13.70;99.90;;;;;;6220115;23;20023;-85
2022/01/07 10:49:06;;;;;;;1.70;0.80;;;13.70;99.90;;;;;;6221201;23;20008;-85
2022/01/07 10:51:38;;;;;;;3.78;1.15;;;13.70;99.90;;;;;;6220298;23;20062;-81
2022/01/07 10:54:19;;;;;;;5.80;0.73;;;13.80;99.90;;;;;;6219550;23;20062;-81
2022/01/07 10:56:48;;;;;;;11.80;1.48;;;13.70;99.90;;;;;;6246548;22;20046;-78
2022/01/07 10:59:19;;;;;;;7.35;1.10;;;13.80;99.90;;;;;;6244800;23;20019;-81
2022/01/07 11:01:57;;;;;;;12.18;1.23;;;13.80;99.90;;;;;;6246324;23;20032;-80
2022/01/07 11:04:31;;;;;;;5.90;1.17;;;13.80;99.90;;;;;;6246357;23;20449;-80
2022/01/07 11:07:03;;;;;;;3.08;1.70;;;13.80;99.90;;;;;;6246096;23;20182;-80
2022/01/07 11:09:30;;;;;;;4.20;0.63;;;13.70;99.90;;;;;;6219485;23;20426;-80
2022/01/07 11:12:02;;;;;;;2.65;1.38;;;13.80;99.90;;;;;;6244509;23;20008;-80
2022/01/07 11:14:41;;;;;;;5.25;0.88;;;13.90;99.90;;;;;;6246314;22;20438;-80
2022/01/07 11:17:11;;;;;;;1.92;0.50;;;13.90;99.90;;;;;;6246661;23;20000;-80
2022/01/07 11:19:43;;;;;;;6.53;1.55;;;14.00;99.90;;;;;;6248449;22;20393;-81
2022/01/07 11:22:13;;;;;;;3.88;1.30;;;14.00;99.90;;;;;;6221391;23;20004;-80
2022/01/07 11:25:03;;;;;;;8.45;1.13;;;14.00;99.90;;;;;;6248520;22;20426;-81
2022/01/07 11:27:30;;;;;;;4.45;0.77;;;14.00;99.90;;;;;;6246466;23;20019;-81
2022/01/07 11:30:02;;;;;;;2.90;0.93;;;13.90;99.90;;;;;;6246385;23;20011;-80
2022/01/07 11:32:37;;;;;;;7.95;0.57;;;14.00;99.90;;;;;;6248205;22;20016;-80
2022/01/07 11:35:19;;;;;;;2.17;0.80;;;14.00;99.90;;;;;;6248041;23;20444;-80
2022/01/07 11:37:57;;;;;;;2.17;0.85;;;14.10;99.90;;;;;;6248554;22;20035;-80
2022/01/07 11:40:33;;;;;;;5.20;0.32;;;14.10;99.90;;;;;;6221127;23;20008;-81
2022/01/07 11:43:37;;;;;;;0.22;0.22;;;14.20;99.90;;;;;;6246454;23;20019;-80
2022/01/07 11:46:23;;;;;;;1.55;0.68;;;14.20;99.90;;;;;;6125663;23;20093;-80
2022/01/07 11:48:51;;;;;;;5.55;0.43;;;14.20;99.90;;;;;;6102099;23;20010;-80
2022/01/07 11:51:17;;;;;;;2.25;0.63;;;14.20;99.90;;;;;;6126194;23;20010;-80
2022/01/07 11:53:52;;;;;;;4.78;0.68;;;14.30;99.90;;;;;;6100964;23;20028;-80
2022/01/07 11:56:25;;;;;;;3.13;0.82;;;14.30;99.90;;;;;;6101208;23;20049;-81
2022/01/07 11:58:56;;;;;;;1.90;0.93;;;14.20;99.90;;;;;;6126268;23;20010;-81
2022/01/07 12:01:30;;;;;;;4.88;0.40;;;14.30;99.90;;;;;;6126096;23;20452;-82
2022/01/07 12:03:59;;;;;;;2.05;1.10;;;14.30;99.90;;;;;;6125830;23;20503;-82
2022/01/07 12:06:26;;;;;;;1.40;0.45;;;14.30;99.90;;;;;;6101206;23;20013;-82
2022/01/07 12:08:59;;;;;;;6.75;0.77;;;14.40;99.90;;;;;;6101676;23;20042;-83
2022/01/07 12:11:30;;;;;;;1.08;0.52;;;14.30;99.90;;;;;;6101418;23;20114;-82
2022/01/07 12:13:57;;;;;;;3.00;0.73;;;14.40;99.90;;;;;;6101319;23;20042;-81
2022/01/07 12:16:28;;;;;;;0.40;0.40;;;14.40;99.90;;;;;;6126046;23;20082;-81
2022/01/07 12:19:23;;;;;;;4.20;0.70;;;14.40;99.90;;;;;;6133825;23;20014;-81
2022/01/07 12:21:56;;;;;;;6.20;1.08;;;14.50;99.90;;;;;;6220783;23;20008;-82
2022/01/07 12:24:34;;;;;;;12.10;1.30;;;14.50;99.90;;;;;;6247616;23;20092;-82
2022/01/07 12:27:13;;;;;;;6.00;1.40;;;14.40;99.90;;;;;;6246549;23;20379;-82
2022/01/07 12:29:42;;;;;;;10.98;1.33;;;14.50;99.90;;;;;;6245400;23;20373;-81
2022/01/07 12:32:13;;;;;;;5.85;1.15;;;14.50;99.90;;;;;;6245897;23;20008;-81
2022/01/07 12:34:49;;;;;;;5.07;1.02;;;14.50;99.90;;;;;;6246012;23;20015;-81
2022/01/07 12:37:25;;;;;;;6.45;0.93;;;14.50;99.90;;;;;;6220946;23;20008;-81
2022/01/07 12:39:57;;;;;;;14.13;2.47;;;14.40;99.90;;;;;;6220871;23;20008;-81
2022/01/07 12:42:35;;;;;;;4.90;0.65;;;14.50;99.90;;;;;;6220839;23;20315;-81
2022/01/07 12:45:02;;;;;;;5.65;1.25;;;14.50;99.90;;;;;;6255122;22;20029;-71
2022/01/07 12:47:32;;;;;;;1.80;0.93;;;14.50;99.90;;;;;;6277876;22;20010;-72
2022/01/07 12:50:05;;;;;;;8.00;1.88;;;14.50;99.90;;;;;;6278060;22;20011;-71
2022/01/07 12:52:32;;;;;;;9.52;1.92;;;14.40;99.90;;;;;;6277829;22;20011;-72
2022/01/07 12:55:11;;;;;;;1.48;0.95;;;14.40;99.90;;;;;;6277692;22;20046;-72